Time;durP1;ratioP1;P1;durP2;ratioP2;P2;SDS_P1;SDS_P2;PMS_P1;PMS_P2;Temp;Humidity;BMP_temperature;BMP_pressure;BME280_temperature;BME280_humidity;BME280_pressure;Samples;Min_cycle;Max_cycle;Signal;HPM_P1;HPM_P2
2021/01/25 00:01:48;;;;;;;5.33;1.57;;;2.50;99.90;;;;;;4993794;28;20666;-81
2021/01/25 00:04:16;;;;;;;8.23;2.30;;;2.40;99.90;;;;;;4993666;28;20245;-81
2021/01/25 00:06:42;;;;;;;7.13;2.07;;;2.30;99.90;;;;;;4994094;28;20244;-80
2021/01/25 00:09:09;;;;;;;6.37;2.23;;;2.30;99.90;;;;;;4993610;28;20701;-81
2021/01/25 00:11:35;;;;;;;4.20;1.50;;;2.20;99.90;;;;;;4993904;28;20306;-80
2021/01/25 00:14:01;;;;;;;4.13;1.50;;;2.20;99.90;;;;;;4994101;28;20596;-81
2021/01/25 00:16:28;;;;;;;7.47;1.40;;;2.30;99.90;;;;;;4993605;28;20284;-80
2021/01/25 00:18:54;;;;;;;3.63;1.00;;;2.30;99.90;;;;;;4993731;28;20234;-81
2021/01/25 00:21:21;;;;;;;6.90;1.70;;;2.30;99.90;;;;;;4993668;28;20233;-81
2021/01/25 00:23:48;;;;;;;4.13;1.17;;;2.20;99.90;;;;;;4993960;28;20558;-81
2021/01/25 00:26:14;;;;;;;5.77;1.23;;;2.10;99.90;;;;;;4993829;28;20724;-81
2021/01/25 00:28:41;;;;;;;4.17;1.40;;;2.10;99.90;;;;;;4993922;28;20233;-80
2021/01/25 00:31:07;;;;;;;5.73;1.73;;;2.10;99.90;;;;;;4993296;28;20281;-81
2021/01/25 00:33:34;;;;;;;7.03;2.33;;;2.00;99.90;;;;;;4992738;28;20760;-81
2021/01/25 00:36:00;;;;;;;9.07;2.23;;;1.90;99.90;;;;;;4993534;28;20210;-81
2021/01/25 00:38:28;;;;;;;9.07;2.17;;;1.80;99.90;;;;;;4992905;28;20233;-81
2021/01/25 00:40:54;;;;;;;9.70;1.83;;;1.70;99.90;;;;;;4993500;28;20249;-81
2021/01/25 00:43:21;;;;;;;7.30;2.03;;;1.70;99.90;;;;;;4994072;28;20229;-81
2021/01/25 00:45:47;;;;;;;7.60;1.70;;;1.70;99.90;;;;;;4993587;28;20248;-80
2021/01/25 00:48:13;;;;;;;6.53;1.63;;;1.80;99.90;;;;;;4993761;28;20245;-81
2021/01/25 00:50:40;;;;;;;7.93;1.87;;;1.80;99.90;;;;;;4993318;28;20230;-80
2021/01/25 00:53:07;;;;;;;5.23;1.50;;;1.70;99.90;;;;;;4993818;28;20633;-81
2021/01/25 00:55:34;;;;;;;11.40;2.30;;;1.60;99.90;;;;;;4993414;28;20232;-80
2021/01/25 00:58:01;;;;;;;8.03;2.27;;;1.60;99.90;;;;;;4993580;28;20712;-81
2021/01/25 01:00:28;;;;;;;8.90;2.33;;;1.70;99.90;;;;;;4993259;28;20249;-81
2021/01/25 01:02:54;;;;;;;8.53;1.90;;;1.70;99.90;;;;;;4992878;28;20665;-80
2021/01/25 01:05:21;;;;;;;3.50;1.83;;;1.70;99.90;;;;;;4993438;28;20229;-81
2021/01/25 01:07:47;;;;;;;6.60;2.47;;;1.70;99.90;;;;;;4992285;28;20198;-81
2021/01/25 01:10:14;;;;;;;5.10;1.50;;;1.70;99.90;;;;;;4993229;28;20233;-81
2021/01/25 01:12:41;;;;;;;6.83;1.67;;;1.60;99.90;;;;;;4993139;28;20194;-81
2021/01/25 01:15:12;;;;;;;8.10;1.47;;;1.60;99.90;;;;;;4993506;28;20692;-81
2021/01/25 01:17:39;;;;;;;7.03;1.60;;;1.60;99.90;;;;;;4992646;28;20205;-81
2021/01/25 01:20:07;;;;;;;6.97;1.40;;;1.60;99.90;;;;;;4993289;28;20229;-81
2021/01/25 01:22:33;;;;;;;7.13;1.60;;;1.60;99.90;;;;;;4993281;28;20232;-81
2021/01/25 01:25:00;;;;;;;5.00;1.80;;;1.60;99.90;;;;;;4993103;28;20229;-81
2021/01/25 01:27:26;;;;;;;6.57;1.73;;;1.60;99.90;;;;;;4992994;28;20241;-81
2021/01/25 01:29:54;;;;;;;6.77;1.80;;;1.50;99.90;;;;;;4993322;28;20240;-80
2021/01/25 01:32:20;;;;;;;5.67;1.37;;;1.60;99.90;;;;;;4992613;28;20280;-81
2021/01/25 01:34:47;;;;;;;7.30;1.37;;;1.60;99.90;;;;;;4993064;28;20883;-81
2021/01/25 01:37:13;;;;;;;4.90;1.30;;;1.70;99.90;;;;;;4993065;28;20290;-81
2021/01/25 01:39:40;;;;;;;9.03;1.70;;;1.70;99.90;;;;;;4993224;28;20225;-81
2021/01/25 01:42:07;;;;;;;6.67;1.50;;;1.70;99.90;;;;;;4993693;28;20201;-80
2021/01/25 01:44:34;;;;;;;4.50;1.47;;;1.60;99.90;;;;;;4996971;28;20198;-81
2021/01/25 01:47:01;;;;;;;7.80;2.20;;;1.60;99.90;;;;;;4996623;28;20259;-81
2021/01/25 01:49:27;;;;;;;10.73;2.30;;;1.50;99.90;;;;;;4996374;28;20244;-81
2021/01/25 01:51:54;;;;;;;7.53;2.17;;;1.40;99.90;;;;;;4996443;28;20627;-81
2021/01/25 01:54:21;;;;;;;9.37;2.27;;;1.40;99.90;;;;;;4996167;28;20246;-81
2021/01/25 01:56:47;;;;;;;4.63;1.70;;;1.40;99.90;;;;;;4996543;28;20284;-81
2021/01/25 01:59:14;;;;;;;9.97;2.40;;;1.40;99.90;;;;;;4996283;28;20280;-80
2021/01/25 02:01:40;;;;;;;7.70;2.20;;;1.40;99.90;;;;;;4996112;28;20197;-81
2021/01/25 02:04:11;;;;;;;7.83;2.00;;;1.40;99.90;;;;;;4995267;28;20640;-80
2021/01/25 02:06:38;;;;;;;7.10;1.97;;;1.40;99.90;;;;;;4995885;28;20230;-80
2021/01/25 02:09:06;;;;;;;5.43;2.10;;;1.40;99.90;;;;;;4995800;28;20268;-80
2021/01/25 02:11:34;;;;;;;5.83;1.77;;;1.40;99.90;;;;;;4996049;28;20205;-80
2021/01/25 02:14:02;;;;;;;7.63;1.77;;;1.40;99.90;;;;;;4995793;28;20244;-80
2021/01/25 02:16:28;;;;;;;5.97;1.50;;;1.40;99.90;;;;;;4995356;28;20236;-81
2021/01/25 02:18:55;;;;;;;4.83;1.30;;;1.40;99.90;;;;;;4995034;28;20205;-80
2021/01/25 02:21:26;;;;;;;5.90;2.10;;;1.30;99.90;;;;;;4995629;28;20219;-81
2021/01/25 02:24:05;;;;;;;8.83;1.83;;;1.30;99.90;;;;;;4995596;28;20307;-80
2021/01/25 02:26:43;;;;;;;6.43;2.07;;;1.30;99.90;;;;;;4995713;28;20632;-80
2021/01/25 02:29:10;;;;;;;3.87;1.47;;;1.30;99.90;;;;;;4995215;28;20241;-80
2021/01/25 02:31:38;;;;;;;3.70;1.53;;;1.40;99.90;;;;;;4994945;28;20279;-81
2021/01/25 02:34:04;;;;;;;9.70;1.60;;;1.30;99.90;;;;;;4994694;28;20699;-80
2021/01/25 02:36:32;;;;;;;6.20;1.30;;;1.30;99.90;;;;;;4995159;28;20228;-81
2021/01/25 02:39:01;;;;;;;6.47;1.37;;;1.30;99.90;;;;;;4994949;28;20213;-80
2021/01/25 02:41:29;;;;;;;2.73;1.30;;;1.30;99.90;;;;;;4994974;28;20669;-81
2021/01/25 02:43:58;;;;;;;5.87;1.47;;;1.20;99.90;;;;;;4995200;28;20232;-80
2021/01/25 02:46:27;;;;;;;4.17;1.30;;;1.20;99.90;;;;;;4994730;28;20703;-81
2021/01/25 02:48:53;;;;;;;5.20;1.47;;;1.30;99.90;;;;;;4994008;28;20247;-80
2021/01/25 02:51:20;;;;;;;5.53;1.60;;;1.30;99.90;;;;;;4994958;28;20240;-81
2021/01/25 02:53:46;;;;;;;4.27;1.40;;;1.30;99.90;;;;;;4994442;28;20201;-80
2021/01/25 02:56:13;;;;;;;6.63;1.70;;;1.30;99.90;;;;;;4994423;28;20684;-80
2021/01/25 02:58:40;;;;;;;4.67;1.73;;;1.30;99.90;;;;;;4994830;28;20244;-81
2021/01/25 03:01:06;;;;;;;5.43;1.50;;;1.20;99.90;;;;;;4993890;28;20735;-80
2021/01/25 03:03:35;;;;;;;5.03;1.70;;;1.20;99.90;;;;;;4993868;28;20687;-81
2021/01/25 03:06:02;;;;;;;7.67;1.37;;;1.20;99.90;;;;;;4993851;28;20364;-80
2021/01/25 03:08:28;;;;;;;8.60;1.23;;;1.20;99.90;;;;;;4994647;28;20205;-80
2021/01/25 03:10:55;;;;;;;4.37;1.07;;;1.20;99.90;;;;;;4994817;28;20622;-81
2021/01/25 03:13:26;;;;;;;4.57;1.00;;;1.10;99.90;;;;;;4994025;28;20629;-81
2021/01/25 03:15:55;;;;;;;6.30;1.27;;;1.00;99.90;;;;;;4994456;28;20672;-81
2021/01/25 03:18:22;;;;;;;4.97;1.30;;;1.00;99.90;;;;;;4986666;28;20206;-80
2021/01/25 03:20:50;;;;;;;3.37;1.10;;;1.00;99.90;;;;;;4993784;28;20669;-81
2021/01/25 03:23:17;;;;;;;6.53;1.10;;;1.00;99.90;;;;;;4994013;28;20216;-81
2021/01/25 03:25:43;;;;;;;4.70;1.23;;;1.00;99.90;;;;;;4994739;28;20254;-81
2021/01/25 03:28:10;;;;;;;4.00;1.50;;;1.00;99.90;;;;;;4993654;28;20707;-80
2021/01/25 03:30:36;;;;;;;8.83;1.83;;;1.10;99.90;;;;;;4993996;28;20729;-80
2021/01/25 03:33:04;;;;;;;7.73;1.40;;;1.20;99.90;;;;;;4993646;28;20264;-80
2021/01/25 03:35:30;;;;;;;5.97;1.37;;;1.50;99.90;;;;;;4994375;28;20201;-80
2021/01/25 03:37:58;;;;;;;6.53;1.17;;;1.70;99.90;;;;;;4994411;28;20247;-80
2021/01/25 03:40:24;;;;;;;5.20;0.97;;;1.90;99.90;;;;;;4993623;28;20264;-80
2021/01/25 03:42:51;;;;;;;5.53;1.20;;;2.00;99.90;;;;;;4994165;28;20244;-80
2021/01/25 03:45:17;;;;;;;8.10;1.20;;;2.00;99.90;;;;;;4993487;28;20237;-80
2021/01/25 03:47:43;;;;;;;4.57;1.17;;;2.00;99.90;;;;;;4994036;28;20368;-80
2021/01/25 03:50:11;;;;;;;6.40;1.20;;;2.00;99.90;;;;;;4993907;28;20288;-80
2021/01/25 03:52:37;;;;;;;9.73;1.20;;;2.00;99.90;;;;;;4993410;28;20371;-80
2021/01/25 03:55:06;;;;;;;4.63;1.10;;;2.10;99.90;;;;;;4993683;28;20240;-80
2021/01/25 03:57:33;;;;;;;3.80;0.97;;;2.00;99.90;;;;;;4993449;28;20225;-80
2021/01/25 03:59:59;;;;;;;8.47;1.30;;;2.10;99.90;;;;;;4993645;28;20261;-80
2021/01/25 04:02:26;;;;;;;6.67;0.93;;;2.10;99.90;;;;;;4993146;28;20240;-81
2021/01/25 04:04:53;;;;;;;6.37;0.80;;;2.10;99.90;;;;;;4993479;28;20236;-80
2021/01/25 04:07:19;;;;;;;5.33;1.17;;;2.10;99.90;;;;;;4993704;28;20244;-80
2021/01/25 04:09:46;;;;;;;5.03;1.30;;;2.10;99.90;;;;;;4993853;28;20218;-80
2021/01/25 04:12:13;;;;;;;3.70;0.80;;;2.10;99.90;;;;;;4993764;28;20805;-80
2021/01/25 04:14:40;;;;;;;3.60;0.90;;;2.10;99.90;;;;;;4992884;28;20194;-80
2021/01/25 04:17:07;;;;;;;4.47;1.03;;;2.10;99.90;;;;;;4993012;28;20247;-81
2021/01/25 04:19:33;;;;;;;3.37;0.73;;;2.10;99.90;;;;;;4993251;28;20217;-80
2021/01/25 04:22:00;;;;;;;6.57;1.30;;;2.00;99.90;;;;;;4993210;28;20229;-81
2021/01/25 04:24:26;;;;;;;5.07;1.23;;;1.90;99.90;;;;;;4993336;28;20244;-81
2021/01/25 04:26:53;;;;;;;6.60;1.30;;;1.90;99.90;;;;;;4992947;28;20205;-81
2021/01/25 04:29:20;;;;;;;3.47;1.00;;;1.80;99.90;;;;;;4992807;28;20202;-80
2021/01/25 04:31:46;;;;;;;6.90;1.10;;;1.80;99.90;;;;;;4992314;28;20237;-81
2021/01/25 04:34:13;;;;;;;4.13;1.20;;;1.90;99.90;;;;;;4992804;28;20202;-81
2021/01/25 04:36:39;;;;;;;5.40;1.30;;;1.90;99.90;;;;;;4992648;28;20194;-81
2021/01/25 04:39:06;;;;;;;4.23;1.20;;;2.00;99.90;;;;;;4993286;28;20204;-81
2021/01/25 04:41:33;;;;;;;5.00;1.20;;;2.00;99.90;;;;;;4992810;28;20213;-81
2021/01/25 04:44:00;;;;;;;2.00;1.30;;;1.90;99.90;;;;;;4992600;28;20201;-81
2021/01/25 04:46:30;;;;;;;5.03;1.40;;;1.80;99.90;;;;;;4993354;28;20204;-81
2021/01/25 04:48:56;;;;;;;4.90;1.20;;;1.80;99.90;;;;;;4993004;28;20208;-81
2021/01/25 04:51:25;;;;;;;3.63;1.40;;;1.80;99.90;;;;;;4992637;28;20205;-81
2021/01/25 04:53:53;;;;;;;5.70;1.67;;;1.80;99.90;;;;;;4992868;28;20585;-81
2021/01/25 04:56:19;;;;;;;6.20;1.73;;;1.70;99.90;;;;;;4992907;28;20200;-81
2021/01/25 04:58:46;;;;;;;3.60;1.40;;;1.70;99.90;;;;;;4992816;28;20233;-80
2021/01/25 05:01:14;;;;;;;5.57;2.07;;;1.60;99.90;;;;;;4992766;28;20586;-80
2021/01/25 05:03:41;;;;;;;6.43;2.27;;;1.50;99.90;;;;;;4992587;28;20228;-80
2021/01/25 05:06:07;;;;;;;6.73;1.70;;;1.60;99.90;;;;;;4992856;28;20209;-81
2021/01/25 05:08:34;;;;;;;5.40;1.57;;;1.60;99.90;;;;;;4992217;28;20233;-80
2021/01/25 05:11:11;;;;;;;4.83;1.70;;;1.60;99.90;;;;;;4992666;28;20233;-81
2021/01/25 05:13:39;;;;;;;4.60;1.63;;;1.70;99.90;;;;;;4992436;28;20254;-79
2021/01/25 05:16:15;;;;;;;5.07;1.60;;;1.70;99.90;;;;;;4992608;28;20741;-80
2021/01/25 05:18:42;;;;;;;6.07;1.60;;;1.80;99.90;;;;;;4995773;28;20365;-81
2021/01/25 05:21:09;;;;;;;4.03;1.70;;;1.80;99.90;;;;;;4996590;28;20218;-80
2021/01/25 05:23:38;;;;;;;7.47;1.67;;;1.80;99.90;;;;;;4997021;28;20212;-81
2021/01/25 05:26:06;;;;;;;6.03;1.80;;;1.80;99.90;;;;;;4996313;28;20756;-81
2021/01/25 05:28:40;;;;;;;5.07;1.90;;;1.80;99.90;;;;;;4996310;28;20202;-81
2021/01/25 05:31:20;;;;;;;4.40;1.80;;;1.70;99.90;;;;;;4995992;28;20285;-81
2021/01/25 05:33:48;;;;;;;6.63;2.00;;;1.60;99.90;;;;;;4995756;28;20372;-80
2021/01/25 05:36:19;;;;;;;5.30;2.03;;;1.60;99.90;;;;;;4995945;28;20663;-80
2021/01/25 05:38:48;;;;;;;7.30;2.37;;;1.50;99.90;;;;;;4995971;28;20233;-81
2021/01/25 05:41:16;;;;;;;6.23;2.70;;;1.50;99.90;;;;;;4995886;28;20265;-81
2021/01/25 05:43:43;;;;;;;6.10;2.20;;;1.60;99.90;;;;;;4996190;28;20642;-80
2021/01/25 05:46:10;;;;;;;7.80;3.03;;;1.60;99.90;;;;;;4996568;28;20304;-80
2021/01/25 05:48:37;;;;;;;7.93;3.57;;;1.60;99.90;;;;;;4996269;28;20202;-81
2021/01/25 05:51:15;;;;;;;7.30;3.27;;;1.50;99.90;;;;;;4995918;28;20673;-80
2021/01/25 05:53:43;;;;;;;7.50;3.50;;;1.50;99.90;;;;;;4996120;28;20226;-81
2021/01/25 05:56:10;;;;;;;9.40;3.47;;;1.60;99.90;;;;;;4995609;28;20206;-81
2021/01/25 05:58:37;;;;;;;6.13;2.87;;;1.60;99.90;;;;;;4996149;28;20663;-81
2021/01/25 06:01:04;;;;;;;11.47;2.93;;;1.70;99.90;;;;;;4995868;28;20740;-81
2021/01/25 06:03:36;;;;;;;9.70;2.90;;;1.70;99.90;;;;;;4995833;28;20751;-81
2021/01/25 06:06:06;;;;;;;8.33;2.70;;;1.70;99.90;;;;;;4995444;28;20204;-77
2021/01/25 06:08:54;;;;;;;6.70;2.67;;;1.70;99.90;;;;;;4995421;28;20241;-77
2021/01/25 06:11:22;;;;;;;8.30;3.80;;;1.70;99.90;;;;;;4995238;28;20229;-78
2021/01/25 06:13:57;;;;;;;6.30;3.33;;;1.70;99.90;;;;;;4995911;28;20629;-78
2021/01/25 06:16:25;;;;;;;9.70;3.27;;;1.70;99.90;;;;;;4994908;28;20288;-78
2021/01/25 06:18:55;;;;;;;6.10;3.20;;;1.70;99.90;;;;;;4995726;28;20240;-77
2021/01/25 06:21:25;;;;;;;11.50;4.17;;;1.80;99.90;;;;;;4995433;28;20312;-77
2021/01/25 06:23:54;;;;;;;7.27;3.17;;;1.80;99.90;;;;;;4995635;28;20240;-78
2021/01/25 06:26:24;;;;;;;9.00;3.00;;;1.80;99.90;;;;;;4995273;28;20245;-79
2021/01/25 06:28:50;;;;;;;6.77;2.47;;;1.80;99.90;;;;;;4994335;28;20285;-79
2021/01/25 06:31:18;;;;;;;9.37;2.83;;;1.70;99.90;;;;;;4995231;28;20236;-80
2021/01/25 06:33:50;;;;;;;10.07;2.60;;;1.60;99.90;;;;;;4994521;28;20255;-77
2021/01/25 06:36:18;;;;;;;6.37;2.73;;;1.50;99.90;;;;;;4994988;28;20623;-78
2021/01/25 06:38:48;;;;;;;9.50;2.60;;;1.40;99.90;;;;;;4993831;28;20713;-79
2021/01/25 06:41:17;;;;;;;8.83;2.70;;;1.30;99.90;;;;;;4994604;28;20229;-79
2021/01/25 06:43:45;;;;;;;8.30;2.97;;;1.30;99.90;;;;;;4994722;28;20243;-79
2021/01/25 06:46:17;;;;;;;6.37;3.03;;;1.20;99.90;;;;;;4994954;28;20229;-78
2021/01/25 06:48:47;;;;;;;6.97;3.33;;;1.10;99.90;;;;;;4994792;28;20689;-79
2021/01/25 06:51:16;;;;;;;7.73;3.40;;;1.20;99.90;;;;;;4993753;28;20255;-78
2021/01/25 06:53:43;;;;;;;9.57;3.70;;;1.10;99.90;;;;;;4994289;28;20208;-78
2021/01/25 06:56:09;;;;;;;6.73;4.00;;;1.00;99.90;;;;;;4993131;28;20245;-79
2021/01/25 06:58:38;;;;;;;6.50;3.50;;;1.00;99.90;;;;;;4993949;28;20240;-78
2021/01/25 07:01:08;;;;;;;8.27;3.60;;;0.90;99.90;;;;;;4993507;28;20724;-78
2021/01/25 07:03:51;;;;;;;11.07;4.10;;;0.80;99.90;;;;;;4993920;28;20685;-78
2021/01/25 07:06:18;;;;;;;8.33;3.80;;;0.70;99.90;;;;;;4990892;28;20288;-78
2021/01/25 07:08:55;;;;;;;9.40;4.20;;;0.70;99.90;;;;;;4993861;28;20245;-78
2021/01/25 07:11:23;;;;;;;6.87;3.80;;;0.60;99.90;;;;;;4994406;28;20287;-78
2021/01/25 07:13:51;;;;;;;8.77;4.57;;;0.50;99.90;;;;;;4993155;28;20876;-78
2021/01/25 07:16:34;;;;;;;14.50;9.67;;;0.30;99.90;;;;;;4992925;28;20768;-79
2021/01/25 07:19:00;;;;;;;12.50;7.53;;;0.20;99.90;;;;;;4993883;28;20236;-78
2021/01/25 07:21:27;;;;;;;10.00;5.80;;;0.10;99.90;;;;;;4993878;28;20253;-78
2021/01/25 07:23:58;;;;;;;14.07;5.93;;;0.10;99.90;;;;;;4992746;28;20695;-78
2021/01/25 07:26:24;;;;;;;11.33;5.90;;;0.10;99.90;;;;;;4993470;28;20204;-78
2021/01/25 07:28:52;;;;;;;15.40;8.60;;;0.20;99.90;;;;;;4993951;28;20286;-78
2021/01/25 07:31:18;;;;;;;15.70;8.43;;;0.20;99.90;;;;;;4993453;28;20274;-78
2021/01/25 07:33:45;;;;;;;11.97;5.93;;;0.30;99.90;;;;;;4993318;28;20266;-79
2021/01/25 07:36:11;;;;;;;13.53;5.90;;;0.50;99.90;;;;;;4993729;28;20211;-79
2021/01/25 07:38:38;;;;;;;15.10;6.97;;;0.50;99.90;;;;;;4993284;28;20283;-78
2021/01/25 07:41:04;;;;;;;14.53;7.13;;;0.50;99.90;;;;;;4993083;28;20750;-78
2021/01/25 07:43:32;;;;;;;12.83;7.20;;;0.50;99.90;;;;;;4993545;28;20231;-78
2021/01/25 07:46:06;;;;;;;13.23;8.00;;;0.50;99.90;;;;;;4992827;28;20654;-79
2021/01/25 07:48:33;;;;;;;15.17;8.47;;;0.60;99.90;;;;;;4993657;28;20236;-78
2021/01/25 07:51:00;;;;;;;14.67;8.37;;;0.70;99.90;;;;;;4993492;28;20288;-78
2021/01/25 07:53:33;;;;;;;14.37;9.03;;;0.60;99.90;;;;;;4993521;28;20287;-78
2021/01/25 07:55:59;;;;;;;19.10;9.33;;;0.60;99.90;;;;;;4991995;28;20238;-80
2021/01/25 07:58:26;;;;;;;20.63;12.10;;;0.70;99.90;;;;;;4992967;28;20235;-79
2021/01/25 08:00:52;;;;;;;17.50;10.17;;;0.70;99.90;;;;;;4992453;28;20703;-79
2021/01/25 08:03:26;;;;;;;17.27;10.20;;;0.90;99.90;;;;;;4991966;28;20227;-79
2021/01/25 08:05:55;;;;;;;16.40;11.27;;;1.30;99.90;;;;;;4992306;28;20210;-79
2021/01/25 08:08:22;;;;;;;16.50;10.37;;;1.50;99.90;;;;;;4992820;28;20293;-80
2021/01/25 08:10:50;;;;;;;20.30;12.83;;;1.50;99.90;;;;;;4992819;28;20224;-80
2021/01/25 08:13:16;;;;;;;17.40;12.00;;;1.50;99.90;;;;;;4993149;28;20233;-80
2021/01/25 08:15:51;;;;;;;16.60;11.13;;;1.70;99.90;;;;;;4992774;28;20712;-80
2021/01/25 08:18:21;;;;;;;16.57;10.60;;;1.90;99.90;;;;;;4992147;28;20381;-80
2021/01/25 08:20:48;;;;;;;18.33;11.23;;;1.90;99.90;;;;;;4992226;28;20667;-80
2021/01/25 08:23:19;;;;;;;22.07;13.90;;;1.70;99.90;;;;;;4991358;28;20245;-80
2021/01/25 08:25:55;;;;;;;15.33;10.27;;;1.70;99.90;;;;;;4992886;28;20236;-80
2021/01/25 08:28:23;;;;;;;12.83;9.03;;;2.10;99.90;;;;;;4992991;28;20231;-80
2021/01/25 08:30:52;;;;;;;14.80;8.90;;;2.60;99.90;;;;;;4992252;28;20199;-80
2021/01/25 08:33:30;;;;;;;10.93;7.77;;;3.40;99.90;;;;;;4989987;28;20728;-79
2021/01/25 08:35:58;;;;;;;11.90;7.53;;;4.20;99.90;;;;;;4991826;28;20248;-78
2021/01/25 08:38:28;;;;;;;10.43;7.63;;;4.40;99.90;;;;;;4995093;28;20256;-79
2021/01/25 08:40:56;;;;;;;10.37;7.30;;;4.60;99.90;;;;;;4993060;28;20271;-78
2021/01/25 08:43:26;;;;;;;8.83;7.23;;;5.00;99.90;;;;;;4991361;28;20248;-78
2021/01/25 08:45:56;;;;;;;10.10;7.10;;;5.10;99.90;;;;;;4988398;28;20277;-79
2021/01/25 08:48:33;;;;;;;8.63;7.33;;;5.40;99.90;;;;;;4985936;28;20276;-78
2021/01/25 08:51:10;;;;;;;11.20;7.07;;;6.10;99.90;;;;;;4991745;28;20220;-78
2021/01/25 08:53:37;;;;;;;11.40;7.83;;;6.70;99.90;;;;;;4991890;28;20292;-78
2021/01/25 08:56:14;;;;;;;8.13;6.77;;;7.00;99.90;;;;;;4991799;28;20295;-79
2021/01/25 08:58:40;;;;;;;10.63;6.70;;;7.10;99.90;;;;;;4992372;28;20232;-78
2021/01/25 09:01:16;;;;;;;10.73;8.63;;;7.50;99.90;;;;;;4992695;28;20312;-78
2021/01/25 09:03:43;;;;;;;19.33;16.27;;;8.00;99.90;;;;;;4991838;28;20240;-78
2021/01/25 09:06:11;;;;;;;9.90;7.43;;;7.90;99.90;;;;;;4992515;28;20225;-79
2021/01/25 09:08:38;;;;;;;7.70;6.90;;;8.30;99.90;;;;;;4991690;28;20245;-78
2021/01/25 09:11:05;;;;;;;7.23;6.13;;;8.40;99.90;;;;;;4991990;28;20280;-78
2021/01/25 09:13:32;;;;;;;8.03;6.33;;;9.00;99.90;;;;;;4991735;28;20241;-78
2021/01/25 09:15:58;;;;;;;6.53;5.90;;;9.10;99.90;;;;;;4992295;28;20292;-78
2021/01/25 09:18:25;;;;;;;8.60;6.43;;;9.30;99.90;;;;;;4991664;28;20240;-78
2021/01/25 09:20:52;;;;;;;8.10;6.47;;;9.00;99.90;;;;;;4991426;28;20245;-78
2021/01/25 09:23:18;;;;;;;6.67;5.60;;;9.50;99.90;;;;;;4992392;28;20233;-78
2021/01/25 09:25:45;;;;;;;6.73;5.90;;;9.50;99.90;;;;;;4991891;28;20871;-78
2021/01/25 09:28:12;;;;;;;6.00;5.20;;;9.40;99.90;;;;;;4992599;28;20202;-79
2021/01/25 09:30:39;;;;;;;6.17;5.47;;;9.50;99.90;;;;;;4991847;28;20697;-78
2021/01/25 09:33:05;;;;;;;6.40;5.40;;;9.90;99.90;;;;;;4991678;28;20241;-78
2021/01/25 09:35:32;;;;;;;7.30;5.60;;;9.70;99.90;;;;;;4992432;28;20728;-79
2021/01/25 09:38:00;;;;;;;6.70;5.77;;;9.90;99.90;;;;;;4987676;28;20713;-78
2021/01/25 09:40:27;;;;;;;7.63;6.43;;;9.60;99.90;;;;;;4992771;28;20226;-78
2021/01/25 09:42:54;;;;;;;11.83;9.30;;;10.00;99.90;;;;;;4991630;28;20289;-79
2021/01/25 09:45:21;;;;;;;10.90;8.07;;;9.60;99.90;;;;;;4991863;28;20244;-79
2021/01/25 09:47:47;;;;;;;8.30;6.90;;;9.50;99.90;;;;;;4991717;28;20608;-78
2021/01/25 09:50:16;;;;;;;10.50;8.27;;;8.90;99.90;;;;;;4991518;28;20234;-79
2021/01/25 09:52:46;;;;;;;13.97;11.43;;;8.80;99.90;;;;;;4991003;28;20209;-79
2021/01/25 09:55:14;;;;;;;28.33;22.77;;;9.10;99.90;;;;;;4984103;28;20232;-80
2021/01/25 09:57:41;;;;;;;32.73;27.93;;;9.90;99.90;;;;;;4993962;28;20244;-80
2021/01/25 10:00:12;;;;;;;17.73;15.40;;;9.30;99.90;;;;;;4990731;28;20720;-83
2021/01/25 10:02:38;;;;;;;13.93;10.80;;;9.60;99.90;;;;;;4991340;28;20263;-83
2021/01/25 10:05:06;;;;;;;10.73;7.83;;;9.60;99.90;;;;;;4994144;28;20248;-83
2021/01/25 10:07:34;;;;;;;9.17;7.60;;;9.00;99.90;;;;;;4995636;28;20241;-83
2021/01/25 10:10:04;;;;;;;9.27;7.43;;;9.30;99.90;;;;;;4995611;28;20609;-82
2021/01/25 10:12:30;;;;;;;10.87;7.10;;;9.50;99.90;;;;;;4995713;28;20236;-83
2021/01/25 10:14:57;;;;;;;10.50;7.17;;;9.40;99.90;;;;;;4995909;28;20237;-82
2021/01/25 10:17:23;;;;;;;12.93;8.30;;;9.70;99.90;;;;;;4994753;28;20212;-82
2021/01/25 10:19:50;;;;;;;13.67;8.40;;;10.00;99.90;;;;;;4996065;28;20198;-82
2021/01/25 10:22:16;;;;;;;10.93;8.03;;;9.90;99.90;;;;;;4986110;28;20260;-82
2021/01/25 10:24:42;;;;;;;14.97;10.33;;;9.50;99.90;;;;;;4995504;28;20198;-83
2021/01/25 10:27:10;;;;;;;12.40;8.43;;;10.00;99.90;;;;;;4994217;28;20236;-79
2021/01/25 10:29:36;;;;;;;17.30;11.57;;;10.00;99.90;;;;;;4994350;28;20753;-80
2021/01/25 10:32:03;;;;;;;13.83;10.20;;;10.30;99.90;;;;;;4993426;28;20257;-80
2021/01/25 10:34:30;;;;;;;8.07;6.30;;;11.00;99.90;;;;;;4994011;28;20894;-79
2021/01/25 10:36:56;;;;;;;9.23;5.90;;;10.70;99.90;;;;;;4994291;28;20233;-80
2021/01/25 10:39:23;;;;;;;8.27;5.17;;;11.10;99.90;;;;;;4994209;28;20221;-80
2021/01/25 10:41:49;;;;;;;7.00;5.13;;;10.80;99.90;;;;;;4994453;28;20253;-80
2021/01/25 10:44:17;;;;;;;8.80;5.20;;;10.70;99.90;;;;;;4994357;28;20237;-79
2021/01/25 10:46:45;;;;;;;7.30;5.23;;;11.10;99.90;;;;;;4994662;28;20241;-79
2021/01/25 10:49:11;;;;;;;6.30;4.77;;;10.40;99.90;;;;;;4994447;28;20260;-80
2021/01/25 10:51:38;;;;;;;8.27;5.13;;;11.30;99.90;;;;;;4994644;28;20236;-80
2021/01/25 10:54:04;;;;;;;8.40;5.13;;;10.80;99.90;;;;;;4994188;28;20293;-80
2021/01/25 10:56:31;;;;;;;7.40;4.70;;;10.80;99.90;;;;;;4994239;28;20296;-80
2021/01/25 10:58:57;;;;;;;8.67;5.73;;;11.10;99.90;;;;;;4993533;28;20225;-79
2021/01/25 11:01:24;;;;;;;7.63;5.73;;;11.40;99.90;;;;;;4993606;28;20304;-80
2021/01/25 11:03:51;;;;;;;7.97;5.67;;;11.50;99.90;;;;;;4993206;28;20237;-80
2021/01/25 11:06:18;;;;;;;8.57;5.60;;;12.00;99.90;;;;;;4993682;28;20271;-80
2021/01/25 11:08:45;;;;;;;9.10;6.40;;;11.60;99.90;;;;;;4993755;28;20231;-80
2021/01/25 11:11:12;;;;;;;9.00;8.03;;;11.80;99.90;;;;;;4993774;28;20685;-80
2021/01/25 11:13:38;;;;;;;6.60;5.27;;;10.80;99.90;;;;;;4994106;28;20241;-80
2021/01/25 11:16:05;;;;;;;7.07;3.67;;;10.50;99.90;;;;;;4992895;28;20286;-80
2021/01/25 11:18:32;;;;;;;6.57;4.40;;;11.00;99.90;;;;;;4993057;28;20236;-80
2021/01/25 11:20:59;;;;;;;8.40;5.97;;;11.10;99.90;;;;;;4993812;28;20261;-80
2021/01/25 11:23:26;;;;;;;6.03;3.50;;;10.20;99.90;;;;;;4992792;28;20626;-78
2021/01/25 11:25:53;;;;;;;8.70;5.20;;;11.00;99.90;;;;;;4993558;28;20666;-79
2021/01/25 11:28:20;;;;;;;9.17;5.20;;;11.40;99.90;;;;;;4993227;28;20225;-79
2021/01/25 11:30:47;;;;;;;9.67;5.80;;;10.70;99.90;;;;;;4992892;28;20592;-79
2021/01/25 11:33:14;;;;;;;9.70;5.27;;;10.80;99.90;;;;;;4992153;28;20303;-79
2021/01/25 11:35:41;;;;;;;7.30;5.00;;;11.00;99.90;;;;;;4993678;28;20363;-79
2021/01/25 11:41:30;;;;;;;10.07;5.83;;;11.20;99.90;;;;;;4981220;28;20227;-79
2021/01/25 11:43:56;;;;;;;11.50;6.87;;;11.50;99.90;;;;;;4992335;28;20202;-78
2021/01/25 11:46:23;;;;;;;9.20;4.77;;;11.30;99.90;;;;;;4993165;28;20205;-79
2021/01/25 11:48:49;;;;;;;14.50;10.57;;;11.00;99.90;;;;;;4993017;28;20668;-79
2021/01/25 11:51:18;;;;;;;27.17;20.10;;;10.40;99.90;;;;;;4993640;28;20577;-79
2021/01/25 11:53:44;;;;;;;9.03;4.93;;;10.60;99.90;;;;;;4992396;28;20206;-79
2021/01/25 11:56:11;;;;;;;10.30;5.40;;;11.20;99.90;;;;;;4992935;28;20198;-79
2021/01/25 11:58:37;;;;;;;8.80;5.47;;;11.30;99.90;;;;;;4993146;28;20202;-80
2021/01/25 12:01:04;;;;;;;11.70;8.00;;;10.70;99.90;;;;;;4993054;28;20253;-80
2021/01/25 12:03:44;;;;;;;7.23;4.30;;;10.40;99.90;;;;;;4993367;28;20205;-79
2021/01/25 12:06:12;;;;;;;6.03;3.77;;;9.60;99.90;;;;;;4993213;28;20544;-79
2021/01/25 12:08:39;;;;;;;24.53;13.53;;;9.50;99.90;;;;;;4993678;28;20625;-80
2021/01/25 12:11:07;;;;;;;10.13;5.50;;;10.60;99.90;;;;;;4992782;28;20271;-80
2021/01/25 12:13:33;;;;;;;9.13;6.00;;;11.10;99.90;;;;;;4993092;28;20720;-80
2021/01/25 12:16:00;;;;;;;11.17;7.00;;;11.10;99.90;;;;;;4992684;28;20225;-79
2021/01/25 12:18:26;;;;;;;17.20;9.37;;;11.20;99.90;;;;;;4992686;28;20240;-80
2021/01/25 12:20:53;;;;;;;20.30;12.20;;;10.60;99.90;;;;;;4992732;28;20249;-80
2021/01/25 12:23:20;;;;;;;94.50;52.30;;;10.70;99.90;;;;;;4992594;28;20205;-80
2021/01/25 12:25:48;;;;;;;26.10;15.53;;;11.20;99.90;;;;;;4992452;28;20280;-80
2021/01/25 12:28:14;;;;;;;44.03;25.80;;;10.90;99.90;;;;;;4991513;28;20580;-80
2021/01/25 12:30:40;;;;;;;37.67;21.73;;;10.70;99.90;;;;;;4992547;28;20677;-80
2021/01/25 12:33:07;;;;;;;14.97;9.00;;;10.40;99.90;;;;;;4991853;28;20741;-79
2021/01/25 12:35:34;;;;;;;12.97;6.83;;;10.60;99.90;;;;;;4992928;28;20197;-80
2021/01/25 12:38:00;;;;;;;6.70;3.30;;;11.00;99.90;;;;;;4992559;28;20634;-79
2021/01/25 12:40:27;;;;;;;11.03;6.03;;;11.50;99.90;;;;;;4991385;28;20221;-80
2021/01/25 12:42:54;;;;;;;4.20;2.37;;;10.80;99.90;;;;;;4992628;28;20233;-78
2021/01/25 12:45:24;;;;;;;4.27;3.10;;;10.30;99.90;;;;;;4992593;28;20317;-79
2021/01/25 12:47:50;;;;;;;6.70;2.47;;;10.80;99.90;;;;;;4991649;28;20248;-79
2021/01/25 12:50:17;;;;;;;25.33;16.70;;;11.10;99.90;;;;;;4991035;28;20225;-80
2021/01/25 12:52:43;;;;;;;20.43;14.67;;;11.50;99.90;;;;;;4991352;28;20233;-80
2021/01/25 12:55:11;;;;;;;13.93;8.07;;;11.00;99.90;;;;;;4991954;28;20241;-80
2021/01/25 12:57:37;;;;;;;5.77;3.00;;;11.10;99.90;;;;;;4990840;28;20241;-80